createdAt,value
2016-10-01T00:00:06.452Z,16.52
2016-10-01T00:00:28.160Z,16.50
2016-10-01T00:00:49.871Z,16.48
2016-10-01T00:01:11.584Z,16.48
2016-10-01T00:01:33.297Z,16.48
2016-10-01T00:01:55.007Z,16.52
2016-10-01T00:02:16.733Z,16.51
2016-10-01T00:02:38.451Z,16.49
2016-10-01T00:03:00.169Z,16.51
2016-10-01T00:03:21.996Z,16.56
2016-10-01T00:03:43.708Z,16.57
2016-10-01T00:04:05.426Z,16.63
2016-10-01T00:04:27.127Z,16.63
2016-10-01T00:04:48.841Z,16.64
2016-10-01T00:05:10.550Z,16.67
2016-10-01T00:05:32.269Z,16.65
2016-10-01T00:05:53.978Z,16.65
2016-10-01T00:06:15.690Z,16.67
2016-10-01T00:06:37.402Z,16.64
2016-10-01T00:06:59.121Z,16.63
2016-10-01T00:07:20.838Z,16.64
2016-10-01T00:07:42.546Z,16.66
2016-10-01T00:08:04.256Z,16.65
2016-10-01T00:08:25.974Z,16.66
2016-10-01T00:08:47.685Z,16.62
2016-10-01T00:09:09.401Z,16.61
2016-10-01T00:09:31.114Z,16.70
2016-10-01T00:09:52.840Z,16.72
2016-10-01T00:10:14.557Z,16.73
2016-10-01T00:10:36.287Z,16.72
2016-10-01T00:10:58.010Z,16.70
2016-10-01T00:11:19.721Z,16.70
2016-10-01T00:11:41.444Z,16.65
2016-10-01T00:12:03.148Z,16.63
2016-10-01T00:12:24.860Z,16.61
2016-10-01T00:12:46.578Z,16.58
2016-10-01T00:13:08.293Z,16.59
2016-10-01T00:13:30.009Z,16.57
2016-10-01T00:13:51.726Z,16.58
2016-10-01T00:14:13.436Z,16.58
2016-10-01T00:14:35.142Z,16.60
2016-10-01T00:14:56.865Z,16.58
2016-10-01T00:15:18.580Z,16.60
2016-10-01T00:15:40.293Z,16.56
2016-10-01T00:16:02.006Z,16.58
2016-10-01T00:16:23.718Z,16.60
2016-10-01T00:16:45.423Z,16.63
2016-10-01T00:17:07.140Z,16.64
2016-10-01T00:17:28.908Z,16.60
2016-10-01T00:17:50.624Z,16.60
2016-10-01T00:18:12.342Z,16.61
2016-10-01T00:18:34.048Z,16.57
2016-10-01T00:18:55.771Z,16.49
2016-10-01T00:19:17.486Z,16.44
2016-10-01T00:19:39.208Z,16.42
2016-10-01T00:20:00.922Z,16.46
2016-10-01T00:20:22.637Z,16.40
2016-10-01T00:20:44.357Z,16.43
2016-10-01T00:21:06.070Z,16.47
2016-10-01T00:21:27.774Z,16.42
2016-10-01T00:21:49.491Z,16.41
2016-10-01T00:22:11.340Z,16.42
2016-10-01T00:22:33.055Z,16.41
2016-10-01T00:22:54.758Z,16.44
2016-10-01T00:23:16.478Z,16.44
2016-10-01T00:23:38.194Z,16.42
2016-10-01T00:23:59.904Z,16.38
2016-10-01T00:24:21.622Z,16.38
2016-10-01T00:24:43.337Z,16.39
2016-10-01T00:25:05.043Z,16.40
2016-10-01T00:25:26.767Z,16.28
2016-10-01T00:25:48.475Z,16.18
2016-10-01T00:26:10.197Z,16.08
2016-10-01T00:26:31.919Z,16.04
2016-10-01T00:26:53.628Z,15.98
2016-10-01T00:27:15.352Z,15.95
2016-10-01T00:27:37.084Z,15.95
2016-10-01T00:27:58.797Z,15.95
2016-10-01T00:28:20.636Z,15.96
2016-10-01T00:28:42.348Z,16.02
2016-10-01T00:29:04.063Z,16.11
2016-10-01T00:29:25.764Z,16.16
2016-10-01T00:29:47.513Z,16.16
2016-10-01T00:30:09.234Z,16.16
2016-10-01T00:30:30.949Z,16.11
2016-10-01T00:30:52.672Z,16.11
2016-10-01T00:31:14.382Z,16.11
2016-10-01T00:31:36.101Z,16.12
2016-10-01T00:31:57.827Z,16.13
2016-10-01T00:32:19.542Z,16.15
2016-10-01T00:32:41.266Z,16.15
2016-10-01T00:33:02.984Z,16.21
2016-10-01T00:33:24.715Z,16.26
2016-10-01T00:33:46.425Z,16.27
2016-10-01T00:34:08.143Z,16.32
2016-10-01T00:34:29.873Z,16.31
2016-10-01T00:34:51.602Z,16.39
2016-10-01T00:35:13.310Z,16.42
2016-10-01T00:35:35.029Z,16.48
2016-10-01T00:35:56.742Z,16.36
2016-10-01T00:36:18.467Z,16.30
2016-10-01T00:36:40.175Z,16.25
2016-10-01T00:37:01.937Z,16.20
2016-10-01T00:37:23.660Z,16.17
2016-10-01T00:37:48.164Z,16.12
2016-10-01T00:38:09.880Z,16.07
2016-10-01T00:38:31.590Z,16.07
2016-10-01T00:38:53.306Z,16.10
2016-10-01T00:39:15.010Z,16.12
2016-10-01T00:39:36.726Z,16.16
2016-10-01T00:39:58.434Z,16.24
2016-10-01T00:40:20.159Z,16.30
2016-10-01T00:40:41.868Z,16.32
2016-10-01T00:41:03.579Z,16.31
2016-10-01T00:41:25.287Z,16.29
2016-10-01T00:41:47.000Z,16.28
2016-10-01T00:42:08.728Z,16.22
2016-10-01T00:42:30.440Z,16.15
2016-10-01T00:42:52.149Z,16.10
2016-10-01T00:43:13.867Z,16.05
2016-10-01T00:43:35.573Z,16.01
2016-10-01T00:43:57.280Z,15.96
2016-10-01T00:44:19.004Z,15.93
2016-10-01T00:44:45.488Z,15.91
2016-10-01T00:45:07.202Z,15.93
2016-10-01T00:45:28.908Z,15.91
2016-10-01T00:45:50.626Z,15.91
2016-10-01T00:46:12.342Z,15.92
2016-10-01T00:46:34.059Z,15.95
2016-10-01T00:46:55.766Z,15.97
2016-10-01T00:47:17.483Z,15.96
2016-10-01T00:47:39.198Z,15.98
2016-10-01T00:48:00.906Z,16.01
2016-10-01T00:48:22.648Z,16.11
2016-10-01T00:48:44.365Z,16.19
2016-10-01T00:49:06.091Z,16.19
2016-10-01T00:49:27.800Z,16.23
2016-10-01T00:49:49.525Z,16.21
2016-10-01T00:50:11.242Z,16.19
2016-10-01T00:50:32.956Z,16.17
2016-10-01T00:50:54.667Z,16.18
2016-10-01T00:51:16.376Z,16.17
2016-10-01T00:51:38.084Z,16.21
2016-10-01T00:51:59.801Z,16.23
2016-10-01T00:52:21.518Z,16.20
2016-10-01T00:52:43.231Z,16.14
2016-10-01T00:53:04.942Z,16.06
2016-10-01T00:53:26.645Z,16.01
2016-10-01T00:53:48.366Z,16.00
2016-10-01T00:54:10.069Z,15.99
2016-10-01T00:54:31.778Z,16.02
2016-10-01T00:54:53.487Z,16.01
2016-10-01T00:55:15.196Z,16.01
2016-10-01T00:55:36.913Z,16.01
2016-10-01T00:55:58.633Z,16.01
2016-10-01T00:56:20.341Z,16.01
2016-10-01T00:56:46.827Z,15.99
2016-10-01T00:57:08.552Z,16.02
2016-10-01T00:57:30.267Z,16.07
2016-10-01T00:57:51.988Z,16.09
2016-10-01T00:58:13.701Z,16.07
2016-10-01T00:58:35.408Z,16.03
2016-10-01T00:58:57.123Z,16.04
2016-10-01T00:59:18.846Z,16.03
2016-10-01T00:59:40.553Z,16.02
2016-10-01T01:00:02.273Z,16.03
2016-10-01T01:00:23.982Z,16.09
2016-10-01T01:00:45.698Z,16.14
2016-10-01T01:01:07.768Z,16.18
2016-10-01T01:01:29.491Z,16.21
2016-10-01T01:01:51.205Z,16.24
2016-10-01T01:02:12.916Z,16.30
2016-10-01T01:02:34.635Z,16.27
2016-10-01T01:02:56.396Z,16.28
2016-10-01T01:03:18.112Z,16.27
2016-10-01T01:03:39.828Z,16.24
2016-10-01T01:04:01.542Z,16.24
2016-10-01T01:04:23.458Z,16.23
2016-10-01T01:04:45.166Z,16.22
2016-10-01T01:05:06.875Z,16.23
2016-10-01T01:05:28.589Z,16.22
2016-10-01T01:05:50.312Z,16.23
2016-10-01T01:06:12.034Z,16.29
2016-10-01T01:06:33.742Z,16.36
2016-10-01T01:06:55.475Z,16.41
2016-10-01T01:07:17.182Z,16.40
2016-10-01T01:07:38.972Z,16.40
2016-10-01T01:08:00.690Z,16.36
2016-10-01T01:08:22.406Z,16.37
2016-10-01T01:08:44.110Z,16.37
2016-10-01T01:09:05.823Z,16.35
2016-10-01T01:09:27.541Z,16.33
2016-10-01T01:09:49.244Z,16.35
2016-10-01T01:10:15.728Z,16.40
2016-10-01T01:10:37.445Z,16.43
2016-10-01T01:10:59.154Z,16.43
2016-10-01T01:11:20.874Z,16.40
2016-10-01T01:11:42.587Z,16.37
2016-10-01T01:12:04.315Z,16.35
2016-10-01T01:12:26.024Z,16.38
2016-10-01T01:12:47.737Z,16.37
2016-10-01T01:13:09.473Z,16.39
2016-10-01T01:13:31.182Z,16.37
2016-10-01T01:13:52.899Z,16.39
2016-10-01T01:14:14.605Z,16.39
2016-10-01T01:14:36.332Z,16.41
2016-10-01T01:14:58.044Z,16.44
2016-10-01T01:15:19.752Z,16.39
2016-10-01T01:15:41.478Z,16.35
2016-10-01T01:16:03.186Z,16.28
2016-10-01T01:16:24.887Z,16.24
2016-10-01T01:16:46.601Z,16.24
2016-10-01T01:17:08.325Z,16.19
2016-10-01T01:17:30.041Z,16.17
2016-10-01T01:17:51.765Z,16.19
2016-10-01T01:18:13.545Z,16.21
2016-10-01T01:18:35.267Z,16.19
2016-10-01T01:18:56.981Z,16.19
2016-10-01T01:19:18.714Z,16.23
2016-10-01T01:19:40.429Z,16.30
2016-10-01T01:20:02.133Z,16.28
2016-10-01T01:20:23.852Z,16.25
2016-10-01T01:20:45.563Z,16.29
2016-10-01T01:21:07.277Z,16.34
2016-10-01T01:21:28.984Z,16.37
2016-10-01T01:21:50.697Z,16.37
2016-10-01T01:22:12.405Z,16.37
2016-10-01T01:22:34.111Z,16.36
2016-10-01T01:22:55.956Z,16.40
2016-10-01T01:23:17.680Z,16.38
2016-10-01T01:23:39.389Z,16.35
2016-10-01T01:24:01.107Z,16.30
2016-10-01T01:24:22.812Z,16.26
2016-10-01T01:24:44.527Z,16.29
2016-10-01T01:25:06.255Z,16.33
2016-10-01T01:25:27.964Z,16.39
2016-10-01T01:25:49.676Z,16.39
2016-10-01T01:26:11.384Z,16.33
2016-10-01T01:26:33.092Z,16.33
2016-10-01T01:26:54.807Z,16.34
2016-10-01T01:27:16.510Z,16.33
2016-10-01T01:27:38.239Z,16.31
2016-10-01T01:27:59.944Z,16.30
2016-10-01T01:28:21.654Z,16.35
2016-10-01T01:28:43.375Z,16.35
2016-10-01T01:29:05.091Z,16.41
2016-10-01T01:29:26.812Z,16.39
2016-10-01T01:29:48.521Z,16.39
2016-10-01T01:30:10.233Z,16.36
2016-10-01T01:30:31.943Z,16.33
2016-10-01T01:30:53.657Z,16.30
2016-10-01T01:31:15.362Z,16.27
2016-10-01T01:31:37.086Z,16.26
2016-10-01T01:31:58.791Z,16.23
2016-10-01T01:32:20.498Z,16.18
2016-10-01T01:32:42.211Z,16.14
2016-10-01T01:33:03.930Z,16.11
2016-10-01T01:33:25.641Z,16.10
2016-10-01T01:33:47.346Z,16.10
2016-10-01T01:34:09.055Z,16.11
2016-10-01T01:34:30.778Z,16.13
2016-10-01T01:34:52.495Z,16.18
2016-10-01T01:35:14.201Z,16.23
2016-10-01T01:35:35.909Z,16.26
2016-10-01T01:35:57.615Z,16.27
2016-10-01T01:36:19.328Z,16.29
2016-10-01T01:36:41.037Z,16.34
2016-10-01T01:37:02.746Z,16.29
2016-10-01T01:37:24.453Z,16.21
2016-10-01T01:37:46.156Z,16.12
2016-10-01T01:38:07.875Z,16.09
2016-10-01T01:38:29.577Z,16.04
2016-10-01T01:38:51.295Z,15.99
2016-10-01T01:39:13.004Z,15.95
2016-10-01T01:39:34.729Z,15.93
2016-10-01T01:39:56.445Z,15.94
2016-10-01T01:40:18.166Z,15.90
2016-10-01T01:40:39.880Z,15.85
2016-10-01T01:41:01.590Z,15.87
2016-10-01T01:41:23.303Z,15.85
2016-10-01T01:41:45.014Z,15.85
2016-10-01T01:42:06.728Z,15.87
2016-10-01T01:42:28.427Z,15.93
2016-10-01T01:42:50.252Z,16.00
2016-10-01T01:43:11.960Z,16.09
2016-10-01T01:43:33.673Z,16.11
2016-10-01T01:43:55.377Z,16.13
2016-10-01T01:44:17.088Z,16.14
2016-10-01T01:44:38.822Z,16.19
2016-10-01T01:45:00.533Z,16.21
2016-10-01T01:45:22.247Z,16.24
2016-10-01T01:45:43.995Z,16.24
2016-10-01T01:46:05.704Z,16.30
2016-10-01T01:46:27.413Z,16.28
2016-10-01T01:46:49.118Z,16.31
2016-10-01T01:47:10.830Z,16.30
2016-10-01T01:47:32.540Z,16.29
2016-10-01T01:47:54.249Z,16.25
2016-10-01T01:48:15.973Z,16.23
2016-10-01T01:48:42.463Z,16.22
2016-10-01T01:49:04.182Z,16.22
2016-10-01T01:49:25.904Z,16.15
2016-10-01T01:49:47.614Z,16.14
2016-10-01T01:50:09.330Z,16.11
2016-10-01T01:50:31.042Z,16.07
2016-10-01T01:50:52.751Z,16.08
2016-10-01T01:51:14.456Z,16.10
2016-10-01T01:51:36.168Z,16.07
2016-10-01T01:51:57.878Z,16.00
2016-10-01T01:52:19.599Z,15.97
2016-10-01T01:52:41.311Z,15.96
2016-10-01T01:53:03.051Z,15.98
2016-10-01T01:53:24.753Z,15.99
2016-10-01T01:53:46.472Z,16.01
2016-10-01T01:54:08.181Z,16.03
2016-10-01T01:54:29.891Z,16.01
2016-10-01T01:54:51.603Z,15.99
2016-10-01T01:55:13.307Z,15.98
2016-10-01T01:55:35.016Z,15.98
2016-10-01T01:55:56.732Z,15.99
2016-10-01T01:56:18.444Z,16.01
2016-10-01T01:56:40.156Z,16.05
2016-10-01T01:57:01.872Z,16.10
2016-10-01T01:57:23.576Z,16.14
2016-10-01T01:57:45.288Z,16.21
2016-10-01T01:58:06.991Z,16.18
2016-10-01T01:58:28.700Z,16.20
2016-10-01T01:58:50.411Z,16.24
2016-10-01T01:59:12.117Z,16.30
2016-10-01T01:59:33.827Z,16.35
2016-10-01T01:59:55.563Z,16.33
2016-10-01T02:00:17.272Z,16.33
2016-10-01T02:01:10.244Z,16.27
2016-10-01T02:01:31.968Z,16.26
2016-10-01T02:01:53.677Z,16.23
2016-10-01T02:02:15.390Z,16.18
2016-10-01T02:02:37.152Z,16.13
2016-10-01T02:02:58.865Z,16.08
2016-10-01T02:03:20.572Z,16.02
2016-10-01T02:03:42.288Z,15.99
2016-10-01T02:04:03.999Z,15.99
2016-10-01T02:04:25.704Z,16.04
2016-10-01T02:04:47.423Z,16.04
2016-10-01T02:05:09.132Z,16.04
2016-10-01T02:05:30.846Z,16.03
2016-10-01T02:05:52.549Z,16.02
2016-10-01T02:06:14.254Z,16.01
2016-10-01T02:06:35.974Z,16.03
2016-10-01T02:06:57.695Z,16.01
2016-10-01T02:07:19.404Z,16.01
2016-10-01T02:07:41.115Z,16.00
2016-10-01T02:08:05.496Z,15.97
2016-10-01T02:08:27.196Z,15.94
2016-10-01T02:08:48.918Z,15.93
2016-10-01T02:09:10.636Z,15.92
2016-10-01T02:09:32.358Z,15.90
2016-10-01T02:09:54.070Z,15.89
2016-10-01T02:10:15.781Z,15.92
2016-10-01T02:10:37.487Z,15.94
2016-10-01T02:10:59.331Z,15.96
2016-10-01T02:11:21.039Z,15.99
2016-10-01T02:11:42.757Z,16.07
2016-10-01T02:12:04.469Z,16.11
2016-10-01T02:12:26.185Z,16.16
2016-10-01T02:12:47.898Z,16.18
2016-10-01T02:13:09.611Z,16.21
2016-10-01T02:13:31.350Z,16.23
2016-10-01T02:14:19.513Z,16.16
2016-10-01T02:14:41.228Z,16.14
2016-10-01T02:15:02.943Z,16.14
2016-10-01T02:15:24.659Z,16.15
2016-10-01T02:15:46.372Z,16.18
2016-10-01T02:16:08.088Z,16.20
2016-10-01T02:16:29.814Z,16.18
2016-10-01T02:16:51.523Z,16.21
2016-10-01T02:17:13.233Z,16.20
2016-10-01T02:17:34.942Z,16.23
2016-10-01T02:17:56.655Z,16.25
2016-10-01T02:18:18.361Z,16.27
2016-10-01T02:18:40.088Z,16.27
2016-10-01T02:19:01.798Z,16.30
2016-10-01T02:19:23.506Z,16.28
2016-10-01T02:19:45.212Z,16.27
2016-10-01T02:20:06.924Z,16.26
2016-10-01T02:20:28.644Z,16.28
2016-10-01T02:20:50.355Z,16.32
2016-10-01T02:21:12.066Z,16.31
2016-10-01T02:21:33.778Z,16.30
2016-10-01T02:21:55.491Z,16.27
2016-10-01T02:22:17.198Z,16.26
2016-10-01T02:22:38.894Z,16.21
2016-10-01T02:23:00.614Z,16.14
2016-10-01T02:23:22.322Z,16.10
2016-10-01T02:23:44.038Z,16.07
2016-10-01T02:24:05.732Z,16.05
2016-10-01T02:24:27.443Z,16.04
2016-10-01T02:24:49.155Z,16.05
2016-10-01T02:25:15.639Z,16.03
2016-10-01T02:25:37.353Z,15.98
2016-10-01T02:25:59.061Z,15.93
2016-10-01T02:26:20.779Z,15.92
2016-10-01T02:26:42.511Z,15.94
2016-10-01T02:27:04.215Z,15.92
2016-10-01T02:27:25.928Z,15.95
2016-10-01T02:27:47.637Z,16.01
2016-10-01T02:28:09.346Z,16.08
2016-10-01T02:28:31.062Z,16.11
2016-10-01T02:28:52.771Z,16.15
2016-10-01T02:29:14.485Z,16.18
2016-10-01T02:29:36.188Z,16.19
2016-10-01T02:29:57.897Z,16.18
2016-10-01T02:30:19.612Z,16.14
2016-10-01T02:30:41.317Z,16.13
2016-10-01T02:31:03.025Z,16.10
2016-10-01T02:31:24.742Z,16.17
2016-10-01T02:31:46.469Z,16.22
2016-10-01T02:32:08.174Z,16.22
2016-10-01T02:32:29.891Z,16.21
2016-10-01T02:32:51.606Z,16.23
2016-10-01T02:33:13.319Z,16.26
2016-10-01T02:33:35.038Z,16.25
2016-10-01T02:33:56.736Z,16.27
2016-10-01T02:34:18.459Z,16.30
2016-10-01T02:34:40.172Z,16.30
2016-10-01T02:35:01.880Z,16.24
2016-10-01T02:35:23.593Z,16.22
2016-10-01T02:35:45.328Z,16.23
2016-10-01T02:36:07.043Z,16.27
2016-10-01T02:36:28.752Z,16.30
2016-10-01T02:36:50.480Z,16.32
2016-10-01T02:37:12.190Z,16.27
2016-10-01T02:37:33.900Z,16.25
2016-10-01T02:37:55.618Z,16.24
2016-10-01T02:38:17.355Z,16.20
2016-10-01T02:38:39.069Z,16.18
2016-10-01T02:39:00.786Z,16.18
2016-10-01T02:39:22.501Z,16.20
2016-10-01T02:39:44.205Z,16.18
2016-10-01T02:40:05.916Z,16.16
2016-10-01T02:40:27.633Z,16.15
2016-10-01T02:40:49.360Z,16.16
2016-10-01T02:41:11.070Z,16.18
2016-10-01T02:41:32.788Z,16.16
2016-10-01T02:41:54.505Z,16.12
2016-10-01T02:42:16.211Z,16.08
2016-10-01T02:42:37.920Z,16.07
2016-10-01T02:42:59.631Z,16.08
2016-10-01T02:43:21.341Z,16.08
2016-10-01T02:43:43.051Z,16.11
2016-10-01T02:44:04.765Z,16.09
2016-10-01T02:44:26.483Z,16.11
2016-10-01T02:44:48.191Z,16.10
2016-10-01T02:45:09.918Z,16.08
2016-10-01T02:45:31.629Z,16.07
2016-10-01T02:45:53.352Z,16.03
2016-10-01T02:46:15.062Z,16.04
2016-10-01T02:46:36.778Z,16.05
2016-10-01T02:46:58.486Z,16.04
2016-10-01T02:47:51.456Z,15.95
2016-10-01T02:48:13.164Z,15.97
2016-10-01T02:48:34.896Z,15.97
2016-10-01T02:48:56.606Z,15.97
2016-10-01T02:49:18.317Z,16.02
2016-10-01T02:49:40.026Z,16.03
2016-10-01T02:50:01.792Z,16.04
2016-10-01T02:50:23.486Z,16.07
2016-10-01T02:50:45.200Z,16.06
2016-10-01T02:51:06.917Z,16.11
2016-10-01T02:51:28.627Z,16.13
2016-10-01T02:51:50.343Z,16.14
2016-10-01T02:52:12.083Z,16.15
2016-10-01T02:52:33.792Z,16.12
2016-10-01T02:52:55.506Z,16.08
2016-10-01T02:53:17.225Z,16.03
2016-10-01T02:53:38.934Z,15.98
2016-10-01T02:54:00.647Z,15.96
2016-10-01T02:54:22.365Z,15.94
2016-10-01T02:54:44.079Z,15.91
2016-10-01T02:55:05.783Z,15.92
2016-10-01T02:55:27.492Z,15.92
2016-10-01T02:55:49.213Z,15.90
2016-10-01T02:56:10.927Z,15.91
2016-10-01T02:56:32.642Z,15.97
2016-10-01T02:56:54.373Z,15.99
2016-10-01T02:57:16.092Z,16.04
2016-10-01T02:57:37.801Z,16.09
2016-10-01T02:57:59.509Z,16.05
2016-10-01T02:58:21.216Z,16.01
2016-10-01T02:58:42.937Z,16.00
2016-10-01T02:59:04.646Z,16.01
2016-10-01T02:59:26.359Z,16.02
2016-10-01T02:59:48.093Z,15.99
2016-10-01T03:00:09.796Z,15.98
2016-10-01T03:00:31.502Z,15.97
2016-10-01T03:00:53.212Z,15.97
2016-10-01T03:01:14.946Z,15.96
2016-10-01T03:01:36.672Z,16.01
2016-10-01T03:01:58.361Z,16.05
2016-10-01T03:02:20.084Z,16.05
2016-10-01T03:02:41.801Z,16.05
2016-10-01T03:03:03.516Z,16.07
2016-10-01T03:03:25.227Z,16.10
2016-10-01T03:03:46.954Z,16.05
2016-10-01T03:04:08.656Z,16.04
2016-10-01T03:04:30.365Z,15.99
2016-10-01T03:04:52.086Z,15.96
2016-10-01T03:05:13.802Z,15.96
2016-10-01T03:05:35.516Z,15.97
2016-10-01T03:05:57.242Z,15.98
2016-10-01T03:06:18.959Z,15.98
2016-10-01T03:06:40.656Z,16.04
2016-10-01T03:07:02.364Z,16.05
2016-10-01T03:07:24.093Z,16.05
2016-10-01T03:07:45.801Z,16.09
2016-10-01T03:08:07.508Z,16.15
2016-10-01T03:08:29.220Z,16.18
2016-10-01T03:08:50.937Z,16.20
2016-10-01T03:09:12.647Z,16.22
2016-10-01T03:09:34.355Z,16.25
2016-10-01T03:09:56.087Z,16.27
2016-10-01T03:10:17.795Z,16.26
2016-10-01T03:10:39.514Z,16.27
2016-10-01T03:11:01.222Z,16.25
2016-10-01T03:11:22.942Z,16.22
2016-10-01T03:11:44.681Z,16.23
2016-10-01T03:12:06.384Z,16.22
2016-10-01T03:12:28.103Z,16.25
2016-10-01T03:12:49.811Z,16.26
2016-10-01T03:13:11.524Z,16.25
2016-10-01T03:13:33.235Z,16.25
2016-10-01T03:13:59.713Z,16.25
2016-10-01T03:14:21.427Z,16.26
2016-10-01T03:14:43.135Z,16.24
2016-10-01T03:15:04.847Z,16.21
2016-10-01T03:15:26.560Z,16.21
2016-10-01T03:15:48.281Z,16.24
2016-10-01T03:16:09.999Z,16.25
2016-10-01T03:16:31.709Z,16.25
2016-10-01T03:16:53.418Z,16.24
2016-10-01T03:17:15.136Z,16.22
2016-10-01T03:17:36.845Z,16.23
2016-10-01T03:17:58.551Z,16.22
2016-10-01T03:18:20.263Z,16.21
2016-10-01T03:18:41.975Z,16.18
2016-10-01T03:19:03.700Z,16.14
2016-10-01T03:19:25.415Z,16.13
2016-10-01T03:19:47.126Z,16.09
2016-10-01T03:20:08.839Z,16.03
2016-10-01T03:20:30.552Z,16.04
2016-10-01T03:20:52.266Z,16.06
2016-10-01T03:21:13.980Z,16.09
2016-10-01T03:21:35.682Z,16.07
2016-10-01T03:21:57.402Z,16.08
2016-10-01T03:22:19.114Z,16.05
2016-10-01T03:22:40.824Z,16.07
2016-10-01T03:23:02.549Z,16.10
2016-10-01T03:23:24.265Z,16.15
2016-10-01T03:23:45.978Z,16.14
2016-10-01T03:24:07.689Z,16.14
2016-10-01T03:24:29.393Z,16.17
2016-10-01T03:24:51.101Z,16.17
2016-10-01T03:25:12.806Z,16.15
2016-10-01T03:25:34.524Z,16.16
2016-10-01T03:25:56.228Z,16.16
2016-10-01T03:26:17.940Z,16.10
2016-10-01T03:26:39.645Z,16.04
2016-10-01T03:27:01.362Z,16.04
2016-10-01T03:27:23.069Z,16.05
2016-10-01T03:27:44.784Z,16.07
2016-10-01T03:28:06.493Z,16.05
2016-10-01T03:28:28.196Z,16.03
2016-10-01T03:28:49.916Z,16.05
2016-10-01T03:29:11.622Z,16.07
2016-10-01T03:29:33.328Z,16.10
2016-10-01T03:29:55.036Z,16.14
2016-10-01T03:30:16.742Z,16.16
2016-10-01T03:30:38.445Z,16.15
2016-10-01T03:31:00.171Z,16.14
2016-10-01T03:31:21.879Z,16.11
2016-10-01T03:31:43.591Z,16.07
2016-10-01T03:32:05.303Z,16.04
2016-10-01T03:32:27.019Z,16.03
2016-10-01T03:32:48.731Z,15.97
2016-10-01T03:33:10.441Z,15.92
2016-10-01T03:33:32.147Z,15.89
2016-10-01T03:33:53.857Z,15.81
2016-10-01T03:34:15.593Z,15.75
2016-10-01T03:34:37.310Z,15.74
2016-10-01T03:34:59.015Z,15.76
2016-10-01T03:35:20.740Z,15.79
2016-10-01T03:35:42.484Z,15.80
2016-10-01T03:36:04.184Z,15.81
2016-10-01T03:36:25.893Z,15.83
2016-10-01T03:36:47.602Z,15.80
2016-10-01T03:37:09.313Z,15.81
2016-10-01T03:37:31.021Z,15.80
2016-10-01T03:37:52.747Z,15.83
2016-10-01T03:38:14.451Z,15.87
2016-10-01T03:38:36.157Z,15.87
2016-10-01T03:38:57.870Z,15.92
2016-10-01T03:39:19.578Z,15.93
2016-10-01T03:39:41.293Z,15.92
2016-10-01T03:40:02.999Z,15.92
2016-10-01T03:40:24.785Z,15.99
2016-10-01T03:40:46.499Z,15.95
2016-10-01T03:41:08.205Z,15.94
2016-10-01T03:41:29.917Z,15.95
2016-10-01T03:41:51.627Z,15.97
2016-10-01T03:42:13.342Z,15.96
2016-10-01T03:42:35.049Z,15.94
2016-10-01T03:42:56.751Z,15.90
2016-10-01T03:43:18.458Z,15.89
2016-10-01T03:43:40.164Z,15.86
2016-10-01T03:44:01.876Z,15.83
2016-10-01T03:44:23.585Z,15.84
2016-10-01T03:44:45.297Z,15.84
2016-10-01T03:45:07.066Z,15.83
2016-10-01T03:45:28.775Z,15.85
2016-10-01T03:45:50.485Z,15.88
2016-10-01T03:46:12.188Z,15.91
2016-10-01T03:46:33.911Z,15.89
2016-10-01T03:46:55.619Z,15.90
2016-10-01T03:47:17.329Z,15.93
2016-10-01T03:47:39.038Z,15.93
2016-10-01T03:48:00.756Z,15.91
2016-10-01T03:48:22.467Z,15.89
2016-10-01T03:48:44.179Z,15.94
2016-10-01T03:49:05.892Z,15.94
2016-10-01T03:49:27.607Z,15.89
2016-10-01T03:49:49.315Z,15.89
2016-10-01T03:50:11.021Z,15.91
2016-10-01T03:50:32.736Z,15.91
2016-10-01T03:50:54.442Z,15.90
2016-10-01T03:51:16.162Z,15.93
2016-10-01T03:51:37.873Z,15.93
2016-10-01T03:51:59.581Z,15.87
2016-10-01T03:52:21.299Z,15.84
2016-10-01T03:52:43.016Z,15.88
2016-10-01T03:53:04.726Z,15.91
2016-10-01T03:53:26.433Z,15.96
2016-10-01T03:53:48.154Z,15.98
2016-10-01T03:54:09.863Z,16.02
2016-10-01T03:54:31.569Z,16.03
2016-10-01T03:54:53.288Z,16.01
2016-10-01T03:55:15.030Z,15.99
2016-10-01T03:55:36.758Z,15.97
2016-10-01T03:55:58.465Z,15.97
2016-10-01T03:56:20.171Z,15.89
2016-10-01T03:56:41.879Z,15.84
2016-10-01T03:57:03.592Z,15.82
2016-10-01T03:57:25.308Z,15.77
2016-10-01T03:57:47.029Z,15.74
2016-10-01T03:58:08.861Z,15.75
2016-10-01T03:58:30.587Z,15.73
2016-10-01T03:58:52.295Z,15.70
2016-10-01T03:59:14.004Z,15.70
2016-10-01T03:59:35.725Z,15.71
2016-10-01T03:59:57.433Z,15.75
2016-10-01T04:00:19.156Z,15.81
2016-10-01T04:00:40.867Z,15.83
2016-10-01T04:01:02.595Z,15.87
2016-10-01T04:01:24.299Z,15.89
2016-10-01T04:01:46.003Z,15.89
2016-10-01T04:02:07.718Z,15.85
2016-10-01T04:02:29.427Z,15.82
2016-10-01T04:02:51.133Z,15.81
2016-10-01T04:03:12.848Z,15.81
2016-10-01T04:03:34.557Z,15.79
2016-10-01T04:03:56.263Z,15.80
2016-10-01T04:04:17.971Z,15.82
2016-10-01T04:04:39.686Z,15.77
2016-10-01T04:05:01.396Z,15.75
2016-10-01T04:05:23.101Z,15.71
2016-10-01T04:05:44.812Z,15.71
2016-10-01T04:06:06.529Z,15.74
2016-10-01T04:06:28.234Z,15.75
2016-10-01T04:06:49.945Z,15.81
2016-10-01T04:07:11.657Z,15.83
2016-10-01T04:07:33.366Z,15.83
2016-10-01T04:07:55.069Z,15.86
2016-10-01T04:08:16.775Z,15.89
2016-10-01T04:08:38.483Z,15.92
2016-10-01T04:09:00.199Z,15.95
2016-10-01T04:09:21.901Z,15.95
2016-10-01T04:09:43.604Z,15.93
2016-10-01T04:10:05.310Z,15.89
2016-10-01T04:10:27.036Z,15.80
2016-10-01T04:10:48.739Z,15.70
2016-10-01T04:11:10.449Z,15.65
2016-10-01T04:11:32.169Z,15.62
2016-10-01T04:11:53.875Z,15.62
2016-10-01T04:12:15.578Z,15.64
2016-10-01T04:12:37.284Z,15.67
2016-10-01T04:12:58.992Z,15.72
2016-10-01T04:13:21.050Z,15.78
2016-10-01T04:13:42.760Z,15.80
2016-10-01T04:14:04.470Z,15.86
2016-10-01T04:14:26.192Z,15.87
2016-10-01T04:14:47.901Z,15.95
2016-10-01T04:15:09.615Z,15.88
2016-10-01T04:15:31.324Z,15.85
2016-10-01T04:15:53.055Z,15.79
2016-10-01T04:16:14.765Z,15.79
2016-10-01T04:16:36.476Z,15.79
2016-10-01T04:16:58.198Z,15.81
2016-10-01T04:17:19.927Z,15.81
2016-10-01T04:17:41.636Z,15.80
2016-10-01T04:18:03.341Z,15.85
2016-10-01T04:18:25.057Z,15.87
2016-10-01T04:18:46.768Z,15.85
2016-10-01T04:19:08.474Z,15.83
2016-10-01T04:19:30.200Z,15.84
2016-10-01T04:19:51.907Z,15.87
2016-10-01T04:20:13.619Z,15.88
2016-10-01T04:20:35.448Z,15.89
2016-10-01T04:20:57.156Z,15.84
2016-10-01T04:21:18.868Z,15.79
2016-10-01T04:21:40.590Z,15.81
2016-10-01T04:22:02.298Z,15.79
2016-10-01T04:22:24.006Z,15.81
2016-10-01T04:22:45.786Z,15.83
2016-10-01T04:23:07.508Z,15.84
2016-10-01T04:23:29.215Z,15.79
2016-10-01T04:23:50.928Z,15.71
2016-10-01T04:24:12.641Z,15.68
2016-10-01T04:24:34.359Z,15.64
2016-10-01T04:24:56.073Z,15.66
2016-10-01T04:25:17.919Z,15.64
2016-10-01T04:25:39.627Z,15.64
2016-10-01T04:26:01.340Z,15.70
2016-10-01T04:26:23.059Z,15.73
2016-10-01T04:26:44.765Z,15.78
2016-10-01T04:27:06.471Z,15.84
2016-10-01T04:27:28.197Z,15.89
2016-10-01T04:27:49.905Z,15.93
2016-10-01T04:28:11.614Z,15.91
2016-10-01T04:28:33.319Z,15.85
2016-10-01T04:28:55.027Z,15.80
2016-10-01T04:29:16.742Z,15.74
2016-10-01T04:29:38.457Z,15.69
2016-10-01T04:30:00.202Z,15.65
2016-10-01T04:30:21.892Z,15.62
2016-10-01T04:30:43.610Z,15.64
2016-10-01T04:31:05.313Z,15.67
2016-10-01T04:31:27.028Z,15.71
2016-10-01T04:31:48.745Z,15.68
2016-10-01T04:32:10.476Z,15.71
2016-10-01T04:32:32.182Z,15.75
2016-10-01T04:32:53.898Z,15.80
2016-10-01T04:33:15.617Z,15.84
2016-10-01T04:33:37.325Z,15.89
2016-10-01T04:33:59.033Z,15.91
2016-10-01T04:34:20.740Z,15.93
2016-10-01T04:34:42.445Z,15.95
2016-10-01T04:35:04.157Z,15.94
2016-10-01T04:35:25.869Z,15.91
2016-10-01T04:35:47.580Z,15.92
2016-10-01T04:36:09.303Z,15.91
2016-10-01T04:36:31.023Z,15.93
2016-10-01T04:36:52.732Z,15.90
2016-10-01T04:37:14.435Z,15.86
2016-10-01T04:37:36.151Z,15.85
2016-10-01T04:37:57.860Z,15.80
2016-10-01T04:38:19.564Z,15.78
2016-10-01T04:38:41.305Z,15.76
2016-10-01T04:39:03.027Z,15.71
2016-10-01T04:39:24.751Z,15.66
2016-10-01T04:39:46.461Z,15.65
2016-10-01T04:40:08.169Z,15.69
2016-10-01T04:40:30.962Z,15.73
2016-10-01T04:40:52.675Z,15.74
2016-10-01T04:41:14.387Z,15.79
2016-10-01T04:41:36.107Z,15.85